Time;durP1;ratioP1;P1;durP2;ratioP2;P2;SDS_P1;SDS_P2;PMS_P1;PMS_P2;Temp;Humidity;BMP_temperature;BMP_pressure;BME280_temperature;BME280_humidity;BME280_pressure;Samples;Min_cycle;Max_cycle;Signal;HPM_P1;HPM_P2
2023/06/11 00:00:20;;;;;;;4.25;3.72;;;22.80;99.90;;;;;;7388269;19;20138;-74
2023/06/11 00:02:53;;;;;;;3.65;3.35;;;22.80;99.90;;;;;;7385693;19;20151;-75
2023/06/11 00:05:20;;;;;;;4.57;4.10;;;22.90;99.90;;;;;;7387078;19;20130;-75
2023/06/11 00:07:48;;;;;;;4.90;3.80;;;22.90;99.90;;;;;;7386617;19;20221;-74
2023/06/11 00:10:16;;;;;;;7.65;3.88;;;22.80;99.90;;;;;;7386204;19;20164;-75
2023/06/11 00:12:42;;;;;;;5.25;3.97;;;22.70;99.90;;;;;;7385932;19;20131;-74
2023/06/11 00:15:08;;;;;;;5.32;4.13;;;22.70;99.90;;;;;;7386863;19;20135;-75
2023/06/11 00:17:34;;;;;;;3.90;3.53;;;22.60;99.90;;;;;;7388765;19;20171;-74
2023/06/11 00:20:08;;;;;;;5.05;3.85;;;22.60;99.90;;;;;;7383151;19;20142;-75
2023/06/11 00:22:35;;;;;;;4.30;3.90;;;22.60;99.90;;;;;;7387381;19;20141;-75
2023/06/11 00:25:01;;;;;;;3.42;3.13;;;22.70;99.90;;;;;;7383609;19;20169;-75
2023/06/11 00:27:27;;;;;;;4.45;3.97;;;22.70;99.90;;;;;;7387078;19;20131;-74
2023/06/11 00:29:54;;;;;;;4.93;3.75;;;22.70;99.90;;;;;;7384323;19;20143;-75
2023/06/11 00:32:20;;;;;;;3.97;3.58;;;22.60;99.90;;;;;;7383518;19;20147;-75
2023/06/11 00:34:46;;;;;;;4.13;3.72;;;22.50;99.90;;;;;;7385620;19;21043;-75
2023/06/11 00:37:11;;;;;;;4.88;4.07;;;22.40;99.90;;;;;;7386038;19;20198;-75
2023/06/11 00:39:37;;;;;;;4.15;3.75;;;22.70;99.90;;;;;;7383993;19;20591;-75
2023/06/11 00:42:03;;;;;;;4.50;3.88;;;22.70;99.90;;;;;;7386062;19;20158;-75
2023/06/11 00:44:29;;;;;;;6.68;3.90;;;22.60;99.90;;;;;;7381632;19;20144;-75
2023/06/11 00:46:57;;;;;;;4.85;3.97;;;22.60;99.90;;;;;;7375543;19;20619;-75
2023/06/11 00:49:23;;;;;;;4.05;3.63;;;22.50;99.90;;;;;;7386242;19;20138;-75
2023/06/11 00:51:50;;;;;;;5.47;3.67;;;22.50;99.90;;;;;;7383649;19;20153;-76
2023/06/11 00:54:18;;;;;;;5.03;3.75;;;22.40;99.90;;;;;;7383796;19;20130;-74
2023/06/11 00:56:47;;;;;;;4.50;3.42;;;22.40;99.90;;;;;;7387762;19;20143;-75
2023/06/11 00:59:15;;;;;;;4.07;3.53;;;22.40;99.90;;;;;;7392034;19;20150;-75
2023/06/11 01:01:51;;;;;;;4.90;3.83;;;22.50;99.90;;;;;;7390770;19;20142;-74
2023/06/11 01:04:17;;;;;;;4.22;3.83;;;22.50;99.90;;;;;;7390556;19;20197;-75
2023/06/11 01:06:49;;;;;;;4.18;3.78;;;22.40;99.90;;;;;;7390826;19;21038;-74
2023/06/11 01:09:22;;;;;;;5.07;3.85;;;22.30;99.90;;;;;;7391417;19;20202;-75
2023/06/11 01:11:54;;;;;;;4.97;4.13;;;22.20;99.90;;;;;;7390518;19;20130;-75
2023/06/11 01:14:21;;;;;;;5.18;3.78;;;22.20;99.90;;;;;;7391537;19;20516;-75
2023/06/11 01:17:02;;;;;;;4.28;3.88;;;22.30;99.90;;;;;;7389210;19;20153;-75
2023/06/11 01:19:37;;;;;;;4.25;3.47;;;22.30;99.90;;;;;;7391713;19;20141;-75
2023/06/11 01:22:29;;;;;;;4.57;4.10;;;22.30;99.90;;;;;;7393660;19;20170;-75
2023/06/11 01:25:20;;;;;;;4.15;3.75;;;22.20;99.90;;;;;;7391211;19;20222;-75
2023/06/11 01:28:03;;;;;;;5.05;4.50;;;22.10;99.90;;;;;;7391199;19;20134;-74
2023/06/11 01:30:35;;;;;;;5.15;3.53;;;22.00;99.90;;;;;;7389670;19;20485;-74
2023/06/11 01:33:03;;;;;;;5.00;3.70;;;21.70;99.90;;;;;;7390572;19;20222;-74
2023/06/11 01:35:29;;;;;;;4.15;3.63;;;21.90;99.90;;;;;;7389772;19;20138;-74
2023/06/11 01:37:58;;;;;;;4.28;3.83;;;22.00;99.90;;;;;;7392450;19;20481;-75
2023/06/11 01:40:28;;;;;;;4.15;3.75;;;22.00;99.90;;;;;;7386341;19;20139;-75
2023/06/11 01:42:55;;;;;;;5.35;4.35;;;22.00;99.90;;;;;;7390465;19;20150;-75
2023/06/11 01:45:22;;;;;;;4.78;4.03;;;22.00;99.90;;;;;;7390210;19;20167;-75
2023/06/11 01:47:52;;;;;;;4.97;4.07;;;21.90;99.90;;;;;;7392149;19;20146;-75
2023/06/11 01:50:18;;;;;;;6.30;3.97;;;21.90;99.90;;;;;;7389026;19;20173;-76
2023/06/11 01:52:44;;;;;;;4.30;3.90;;;21.90;99.90;;;;;;7389573;19;20218;-74
2023/06/11 01:55:10;;;;;;;6.10;4.00;;;21.90;99.90;;;;;;7389482;19;20158;-75
2023/06/11 01:57:37;;;;;;;4.55;4.15;;;21.70;99.90;;;;;;7389842;19;20138;-75
2023/06/11 02:00:10;;;;;;;4.40;4.00;;;21.50;99.90;;;;;;7390208;19;20537;-75
2023/06/11 02:02:37;;;;;;;4.90;4.20;;;21.60;99.90;;;;;;7391417;19;20595;-75
2023/06/11 02:05:03;;;;;;;4.50;4.10;;;21.70;99.90;;;;;;7391427;19;20165;-75
2023/06/11 02:07:29;;;;;;;5.80;4.18;;;21.70;99.90;;;;;;7387468;19;20135;-76
2023/06/11 02:09:55;;;;;;;4.40;4.00;;;21.70;99.90;;;;;;7389023;19;20146;-76
2023/06/11 02:12:20;;;;;;;5.25;4.28;;;21.50;99.90;;;;;;7387742;19;20152;-74
2023/06/11 02:14:46;;;;;;;4.90;3.92;;;21.50;99.90;;;;;;7390260;19;20569;-75
2023/06/11 02:17:12;;;;;;;4.75;3.92;;;21.50;99.90;;;;;;7389330;19;20131;-74
2023/06/11 02:19:38;;;;;;;6.97;4.18;;;21.30;99.90;;;;;;7390118;19;20164;-74
2023/06/11 02:22:04;;;;;;;4.53;4.13;;;21.30;99.90;;;;;;7388993;19;20138;-75
2023/06/11 02:24:30;;;;;;;4.78;4.05;;;21.40;99.90;;;;;;7391928;19;20275;-74
2023/06/11 02:26:56;;;;;;;4.00;3.60;;;21.60;99.90;;;;;;7391168;19;20134;-74
2023/06/11 02:29:22;;;;;;;5.28;4.20;;;21.60;99.90;;;;;;7390378;19;20157;-73
2023/06/11 02:31:47;;;;;;;5.15;4.15;;;21.60;99.90;;;;;;7389444;19;20134;-74
2023/06/11 02:34:13;;;;;;;4.30;3.88;;;21.60;99.90;;;;;;7385891;19;20157;-75
2023/06/11 02:36:40;;;;;;;5.15;4.30;;;21.60;99.90;;;;;;7390172;19;20150;-74
2023/06/11 02:39:06;;;;;;;6.53;4.45;;;21.60;99.90;;;;;;7389989;19;20146;-75
2023/06/11 02:41:33;;;;;;;5.13;4.22;;;21.60;99.90;;;;;;7394402;19;20469;-75
2023/06/11 02:43:59;;;;;;;5.50;4.40;;;21.50;99.90;;;;;;7392425;19;20160;-75
2023/06/11 02:46:24;;;;;;;4.47;4.05;;;21.50;99.90;;;;;;7393227;19;20146;-74
2023/06/11 02:48:50;;;;;;;5.85;4.63;;;21.50;99.90;;;;;;7392486;19;20146;-76
2023/06/11 02:51:19;;;;;;;4.38;3.97;;;21.30;99.90;;;;;;7395316;19;20127;-75
2023/06/11 02:53:45;;;;;;;5.13;4.13;;;21.20;99.90;;;;;;7390988;19;20150;-75
2023/06/11 02:56:11;;;;;;;3.92;3.55;;;21.10;99.90;;;;;;7395813;19;20139;-74
2023/06/11 02:58:36;;;;;;;8.10;4.18;;;21.00;99.90;;;;;;7392379;19;20142;-75
2023/06/11 03:01:03;;;;;;;4.07;3.67;;;21.00;99.90;;;;;;7389056;19;20138;-76
2023/06/11 03:03:28;;;;;;;4.70;4.22;;;21.10;99.90;;;;;;7390044;19;20202;-75
2023/06/11 03:05:54;;;;;;;4.57;4.00;;;21.10;99.90;;;;;;7386982;19;20144;-75
2023/06/11 03:08:20;;;;;;;5.22;4.25;;;21.00;99.90;;;;;;7388970;19;20127;-74
2023/06/11 03:10:45;;;;;;;4.43;3.95;;;21.10;99.90;;;;;;7387860;19;20135;-74
2023/06/11 03:13:11;;;;;;;5.60;4.18;;;20.90;99.90;;;;;;7386230;19;20206;-75
2023/06/11 03:15:37;;;;;;;4.53;3.80;;;21.00;99.90;;;;;;7387350;19;20138;-75
2023/06/11 03:18:03;;;;;;;4.15;3.75;;;21.10;99.90;;;;;;7387271;19;20131;-75
2023/06/11 03:20:29;;;;;;;4.30;3.90;;;21.10;99.90;;;;;;7386328;19;20141;-75
2023/06/11 03:22:54;;;;;;;4.47;4.07;;;21.10;99.90;;;;;;7387244;19;20512;-74
2023/06/11 03:25:20;;;;;;;4.00;3.67;;;20.90;99.90;;;;;;7387540;19;20138;-75
2023/06/11 03:27:46;;;;;;;4.40;3.80;;;20.70;99.90;;;;;;7386559;19;20137;-74
2023/06/11 03:30:12;;;;;;;4.00;3.60;;;20.50;99.90;;;;;;7386782;19;20138;-75
2023/06/11 03:32:40;;;;;;;4.95;4.00;;;20.20;99.90;;;;;;7383421;19;20143;-74
2023/06/11 03:35:06;;;;;;;4.63;4.22;;;20.40;99.90;;;;;;7388572;19;20141;-74
2023/06/11 03:37:32;;;;;;;4.70;4.20;;;20.40;99.90;;;;;;7385282;19;20138;-75
2023/06/11 03:39:58;;;;;;;4.05;3.75;;;20.50;99.90;;;;;;7384960;19;20577;-75
2023/06/11 03:42:24;;;;;;;5.05;3.95;;;20.70;99.90;;;;;;7386861;19;20152;-74
2023/06/11 03:44:53;;;;;;;5.22;3.85;;;20.80;99.90;;;;;;7387418;19;20488;-75
2023/06/11 03:47:19;;;;;;;4.70;3.90;;;20.90;99.90;;;;;;7384770;19;20230;-74
2023/06/11 03:49:45;;;;;;;4.88;3.60;;;20.80;99.90;;;;;;7385296;19;20619;-75
2023/06/11 03:52:11;;;;;;;4.75;4.25;;;20.70;99.90;;;;;;7384752;19;20744;-75
2023/06/11 03:54:36;;;;;;;4.07;3.67;;;20.80;99.90;;;;;;7384896;19;20139;-75
2023/06/11 03:57:02;;;;;;;4.43;3.90;;;20.70;99.90;;;;;;7386754;19;20131;-75
2023/06/11 03:59:28;;;;;;;3.85;3.50;;;20.70;99.90;;;;;;7384206;19;20127;-74
2023/06/11 04:01:54;;;;;;;3.95;3.55;;;20.40;99.90;;;;;;7386208;19;20650;-75
2023/06/11 04:04:20;;;;;;;4.78;3.83;;;20.40;99.90;;;;;;7383721;19;20214;-75
2023/06/11 04:06:46;;;;;;;4.72;3.65;;;20.40;99.90;;;;;;7385531;19;20154;-75
2023/06/11 04:09:11;;;;;;;4.10;3.70;;;20.50;99.90;;;;;;7384537;19;20134;-75
2023/06/11 04:11:37;;;;;;;4.45;3.55;;;20.70;99.90;;;;;;7386816;19;20153;-75
2023/06/11 04:14:03;;;;;;;4.60;4.18;;;20.90;99.90;;;;;;7381369;19;20229;-75
2023/06/11 04:16:28;;;;;;;4.28;3.88;;;20.80;99.90;;;;;;7386121;19;20591;-76
2023/06/11 04:18:54;;;;;;;5.63;3.65;;;20.80;99.90;;;;;;7384272;19;20130;-76
2023/06/11 04:21:20;;;;;;;3.67;3.38;;;20.90;99.90;;;;;;7387389;19;20131;-75
2023/06/11 04:23:46;;;;;;;4.65;4.05;;;21.00;99.90;;;;;;7383464;19;20702;-75
2023/06/11 04:26:15;;;;;;;3.95;3.55;;;20.90;99.90;;;;;;7385939;19;20152;-75
2023/06/11 04:28:44;;;;;;;3.95;3.50;;;21.00;99.90;;;;;;7384741;19;20615;-75
2023/06/11 04:31:11;;;;;;;4.10;3.70;;;21.00;99.90;;;;;;7385221;19;20213;-74
2023/06/11 04:33:38;;;;;;;3.92;3.53;;;21.00;99.90;;;;;;7388540;19;20127;-75
2023/06/11 04:36:07;;;;;;;6.05;3.83;;;21.10;99.90;;;;;;7391957;19;20217;-76
2023/06/11 04:38:36;;;;;;;5.03;4.10;;;21.00;99.90;;;;;;7392310;19;20142;-75
2023/06/11 04:41:05;;;;;;;4.63;3.83;;;21.00;99.90;;;;;;7390829;19;20494;-75
2023/06/11 04:43:33;;;;;;;4.30;3.90;;;20.90;99.90;;;;;;7389122;19;20146;-76
2023/06/11 04:46:00;;;;;;;4.82;4.32;;;21.00;99.90;;;;;;7390587;19;20213;-76
2023/06/11 04:48:31;;;;;;;4.25;3.85;;;21.10;99.90;;;;;;7390763;19;20134;-75
2023/06/11 04:50:59;;;;;;;4.25;3.72;;;21.10;99.90;;;;;;7389229;19;20139;-75
2023/06/11 04:53:27;;;;;;;4.00;3.63;;;21.10;99.90;;;;;;7391556;19;20177;-75
2023/06/11 04:55:55;;;;;;;4.28;3.65;;;21.10;99.90;;;;;;7394781;19;20505;-75
2023/06/11 04:58:25;;;;;;;4.22;3.75;;;21.10;99.90;;;;;;7392315;19;20137;-75
2023/06/11 05:00:52;;;;;;;4.15;3.70;;;21.10;99.90;;;;;;7391487;19;20130;-75
2023/06/11 05:03:18;;;;;;;4.93;4.18;;;21.00;99.90;;;;;;7392589;19;20141;-75
2023/06/11 05:05:51;;;;;;;4.82;3.92;;;21.10;99.90;;;;;;7392468;19;20145;-76
2023/06/11 05:08:25;;;;;;;6.53;4.15;;;21.10;99.90;;;;;;7390566;19;20151;-75
2023/06/11 05:10:51;;;;;;;4.75;4.00;;;21.10;99.90;;;;;;7391088;19;20591;-74
2023/06/11 05:13:22;;;;;;;4.80;3.80;;;21.20;99.90;;;;;;7391108;19;20162;-73
2023/06/11 05:15:48;;;;;;;6.13;4.22;;;21.10;99.90;;;;;;7389662;19;20206;-75
2023/06/11 05:18:14;;;;;;;4.38;3.97;;;21.10;99.90;;;;;;7391610;19;20138;-75
2023/06/11 05:20:40;;;;;;;4.82;3.85;;;21.10;99.90;;;;;;7389210;19;20676;-75
2023/06/11 05:23:06;;;;;;;4.50;4.00;;;21.10;99.90;;;;;;7392669;19;20137;-75
2023/06/11 05:25:32;;;;;;;5.85;4.25;;;21.00;99.90;;;;;;7388410;19;20138;-75
2023/06/11 05:28:02;;;;;;;5.57;4.97;;;21.10;99.90;;;;;;7392581;19;20137;-75
2023/06/11 05:30:33;;;;;;;5.93;4.30;;;21.30;99.90;;;;;;7388453;19;20158;-76
2023/06/11 05:33:00;;;;;;;5.53;3.90;;;21.30;99.90;;;;;;7389452;19;20147;-75
2023/06/11 05:35:26;;;;;;;4.57;3.67;;;21.30;99.90;;;;;;7390001;19;20131;-76
2023/06/11 05:37:52;;;;;;;5.13;4.15;;;21.20;99.90;;;;;;7391928;19;20142;-76
2023/06/11 05:40:18;;;;;;;4.57;4.00;;;21.20;99.90;;;;;;7389493;19;20924;-77
2023/06/11 05:42:44;;;;;;;4.30;3.90;;;21.40;99.90;;;;;;7389927;19;20146;-76
2023/06/11 05:45:10;;;;;;;4.45;4.05;;;21.40;99.90;;;;;;7388536;19;20154;-75
2023/06/11 05:47:36;;;;;;;4.00;3.67;;;21.40;99.90;;;;;;7392157;19;20138;-76
2023/06/11 05:50:02;;;;;;;4.80;4.30;;;21.40;99.90;;;;;;7389938;19;20512;-75
2023/06/11 05:52:27;;;;;;;5.22;4.00;;;21.50;99.90;;;;;;7391018;19;20134;-75
2023/06/11 05:54:53;;;;;;;4.38;3.55;;;21.40;99.90;;;;;;7391457;19;20138;-75
2023/06/11 05:57:24;;;;;;;3.97;3.53;;;21.50;99.90;;;;;;7391745;19;20601;-75
2023/06/11 05:59:51;;;;;;;4.70;3.60;;;21.60;99.90;;;;;;7388068;19;20149;-75
2023/06/11 06:02:17;;;;;;;4.13;3.70;;;21.40;99.90;;;;;;7389831;19;20148;-76
2023/06/11 06:04:47;;;;;;;4.22;3.65;;;21.50;99.90;;;;;;7389806;19;20155;-74
2023/06/11 06:07:13;;;;;;;3.83;3.45;;;21.60;99.90;;;;;;7388407;19;20157;-74
2023/06/11 06:09:39;;;;;;;4.30;3.90;;;21.70;99.90;;;;;;7386077;19;20185;-76
2023/06/11 06:12:09;;;;;;;3.88;3.58;;;22.10;99.90;;;;;;7391392;19;20130;-75
2023/06/11 06:14:35;;;;;;;4.07;3.78;;;23.80;99.90;;;;;;7388494;19;20134;-75
2023/06/11 06:17:00;;;;;;;3.95;3.55;;;25.60;99.90;;;;;;7387524;19;20228;-76
2023/06/11 06:19:26;;;;;;;4.13;3.72;;;26.30;99.90;;;;;;7390282;19;20146;-76
2023/06/11 06:21:52;;;;;;;4.50;3.25;;;26.50;99.90;;;;;;7390400;19;20146;-75
2023/06/11 06:24:18;;;;;;;4.82;4.32;;;27.70;99.90;;;;;;7387909;19;20215;-76
2023/06/11 06:26:44;;;;;;;3.85;3.53;;;28.70;99.90;;;;;;7388091;19;20150;-77
2023/06/11 06:29:12;;;;;;;3.78;3.47;;;29.20;99.90;;;;;;7387905;19;20177;-75
2023/06/11 06:31:41;;;;;;;5.22;3.92;;;29.90;99.90;;;;;;7389313;19;20586;-75
2023/06/11 06:34:08;;;;;;;3.97;3.25;;;30.20;99.70;;;;;;7385531;19;20142;-76
2023/06/11 06:36:37;;;;;;;3.88;3.40;;;30.50;99.50;;;;;;7389303;19;20480;-77
2023/06/11 06:39:03;;;;;;;3.50;3.20;;;31.40;97.80;;;;;;7388276;19;20173;-75
2023/06/11 06:41:29;;;;;;;4.72;3.80;;;31.90;96.10;;;;;;7389013;19;20160;-76
2023/06/11 06:43:55;;;;;;;3.92;3.40;;;31.50;96.50;;;;;;7382962;19;20158;-76
2023/06/11 06:46:20;;;;;;;4.72;3.22;;;31.50;95.90;;;;;;7387821;19;20595;-77
2023/06/11 06:48:46;;;;;;;3.28;2.95;;;32.00;95.40;;;;;;7390750;19;20137;-76
2023/06/11 06:51:12;;;;;;;3.97;3.47;;;32.30;94.10;;;;;;7388425;19;20631;-77
2023/06/11 06:53:37;;;;;;;3.88;3.55;;;32.40;93.40;;;;;;7384234;19;20659;-76
2023/06/11 06:56:05;;;;;;;3.53;3.13;;;32.30;93.50;;;;;;7390285;19;20135;-76
2023/06/11 06:58:34;;;;;;;4.63;3.53;;;32.00;93.70;;;;;;7387785;19;20147;-75
2023/06/11 07:01:00;;;;;;;3.75;3.00;;;31.70;93.40;;;;;;7386000;19;20137;-78
2023/06/11 07:03:26;;;;;;;3.83;3.42;;;31.00;94.00;;;;;;7390096;19;20135;-77
2023/06/11 07:05:51;;;;;;;3.80;3.50;;;30.90;94.60;;;;;;7387162;19;20135;-75
2023/06/11 07:08:18;;;;;;;3.75;3.45;;;30.70;94.60;;;;;;7388984;19;20165;-75
2023/06/11 07:10:53;;;;;;;3.88;3.47;;;30.30;94.70;;;;;;7386709;19;20130;-75
2023/06/11 07:13:20;;;;;;;3.60;3.30;;;30.20;94.80;;;;;;7384282;19;20152;-76
2023/06/11 07:15:46;;;;;;;4.45;3.70;;;30.60;94.20;;;;;;7387432;19;20156;-76
2023/06/11 07:18:12;;;;;;;4.50;4.10;;;30.80;93.80;;;;;;7386857;19;20130;-77
2023/06/11 07:20:40;;;;;;;3.60;3.30;;;30.70;93.70;;;;;;7385276;19;20210;-76
2023/06/11 07:23:06;;;;;;;3.70;3.40;;;30.60;93.80;;;;;;7387147;19;20139;-75
2023/06/11 07:25:33;;;;;;;3.42;3.13;;;30.20;93.60;;;;;;7386697;19;20134;-75
2023/06/11 07:28:00;;;;;;;4.68;3.13;;;29.60;94.80;;;;;;7388404;19;20151;-76
2023/06/11 07:30:26;;;;;;;3.60;3.20;;;29.20;95.50;;;;;;7387426;19;21242;-76
2023/06/11 07:32:53;;;;;;;4.03;3.40;;;29.70;94.70;;;;;;7386405;19;20130;-74
2023/06/11 07:35:20;;;;;;;4.53;3.70;;;29.30;95.00;;;;;;7388106;19;20134;-76
2023/06/11 07:37:47;;;;;;;4.07;3.67;;;29.80;94.60;;;;;;7387065;19;20598;-75
2023/06/11 07:40:14;;;;;;;5.18;3.47;;;29.70;94.70;;;;;;7385741;19;20142;-77
2023/06/11 07:42:39;;;;;;;3.67;2.97;;;29.80;94.50;;;;;;7384268;19;20207;-75
2023/06/11 07:45:06;;;;;;;3.22;2.92;;;29.90;94.80;;;;;;7385730;19;20142;-76
2023/06/11 07:47:32;;;;;;;3.55;3.10;;;30.40;94.40;;;;;;7386145;19;20214;-75
2023/06/11 07:49:58;;;;;;;3.78;3.40;;;30.90;93.30;;;;;;7385561;19;20155;-74
2023/06/11 07:52:23;;;;;;;3.55;3.25;;;30.90;92.80;;;;;;7385765;19;20507;-75
2023/06/11 07:54:49;;;;;;;3.40;3.10;;;30.40;93.30;;;;;;7372518;19;20859;-74
2023/06/11 07:57:15;;;;;;;3.28;2.90;;;29.90;93.50;;;;;;7382385;19;20653;-74
2023/06/11 07:59:43;;;;;;;3.83;3.40;;;29.80;93.00;;;;;;7385062;19;20949;-75
2023/06/11 08:02:10;;;;;;;3.13;2.83;;;29.60;93.00;;;;;;7387769;19;20138;-74
2023/06/11 08:04:37;;;;;;;3.38;3.08;;;28.70;93.70;;;;;;7384294;19;21056;-74
2023/06/11 08:07:03;;;;;;;3.30;3.00;;;29.00;94.00;;;;;;7391276;19;20150;-74
2023/06/11 08:09:30;;;;;;;3.42;3.10;;;28.70;93.40;;;;;;7388892;19;20193;-73
2023/06/11 08:11:56;;;;;;;3.25;2.85;;;28.60;93.40;;;;;;7393234;19;20138;-74
2023/06/11 08:14:22;;;;;;;3.40;3.10;;;28.50;94.00;;;;;;7388800;19;20152;-75
2023/06/11 08:16:50;;;;;;;4.25;3.05;;;28.50;93.90;;;;;;7392938;19;20493;-75
2023/06/11 08:19:16;;;;;;;4.03;3.30;;;28.60;94.00;;;;;;7391172;19;20226;-74
2023/06/11 08:21:41;;;;;;;3.28;2.97;;;28.90;93.60;;;;;;7392378;19;20135;-74
2023/06/11 08:24:08;;;;;;;3.20;2.90;;;29.40;93.10;;;;;;7381521;19;20155;-73
2023/06/11 08:26:34;;;;;;;3.22;2.88;;;29.30;92.80;;;;;;7386002;19;20150;-74
2023/06/11 08:29:02;;;;;;;3.50;2.90;;;29.30;93.30;;;;;;7388967;19;20570;-74
2023/06/11 08:31:28;;;;;;;3.20;2.80;;;29.50;91.80;;;;;;7388139;19;20602;-75
2023/06/11 08:33:54;;;;;;;3.70;2.65;;;29.50;91.80;;;;;;7388446;19;20149;-74
2023/06/11 08:36:20;;;;;;;3.70;3.08;;;29.50;91.50;;;;;;7392589;19;20144;-74
2023/06/11 08:38:47;;;;;;;4.05;3.00;;;29.40;91.80;;;;;;7392041;19;20127;-74
2023/06/11 08:41:15;;;;;;;3.90;3.30;;;29.30;91.00;;;;;;7391447;19;20139;-74
2023/06/11 08:43:40;;;;;;;4.05;3.20;;;28.70;91.60;;;;;;7384597;19;20167;-74
2023/06/11 08:46:14;;;;;;;3.47;3.17;;;28.50;92.00;;;;;;7391375;19;20150;-73
2023/06/11 08:48:42;;;;;;;4.75;3.60;;;28.50;92.80;;;;;;7386908;19;20607;-75
2023/06/11 08:51:12;;;;;;;3.40;2.90;;;28.60;92.40;;;;;;7388919;19;20155;-75
2023/06/11 08:53:39;;;;;;;4.05;2.97;;;28.40;92.50;;;;;;7389056;19;20142;-74
2023/06/11 08:56:07;;;;;;;5.93;3.83;;;28.30;92.60;;;;;;7393895;19;20135;-74
2023/06/11 08:58:34;;;;;;;3.50;3.20;;;28.30;92.50;;;;;;7388758;19;20137;-73
2023/06/11 09:01:10;;;;;;;5.85;3.72;;;28.40;93.00;;;;;;7390970;19;20932;-74
2023/06/11 09:03:37;;;;;;;3.60;3.10;;;28.50;92.50;;;;;;7393427;19;20208;-75
2023/06/11 09:06:03;;;;;;;4.40;2.85;;;28.30;92.30;;;;;;7390550;19;20146;-74
2023/06/11 09:08:29;;;;;;;3.20;2.90;;;28.00;92.40;;;;;;7382672;19;20135;-74
2023/06/11 09:10:55;;;;;;;4.20;2.90;;;27.70;92.80;;;;;;7391091;19;20126;-74
2023/06/11 09:13:26;;;;;;;3.20;2.72;;;27.60;93.10;;;;;;7383332;19;20135;-74
2023/06/11 09:15:55;;;;;;;5.20;3.47;;;27.80;92.90;;;;;;7389451;19;20486;-75
2023/06/11 09:18:26;;;;;;;3.92;3.10;;;27.80;93.30;;;;;;7384475;19;20143;-73
2023/06/11 09:20:53;;;;;;;7.47;3.45;;;27.70;93.70;;;;;;7373206;19;20670;-74
2023/06/11 09:23:30;;;;;;;5.65;3.45;;;27.40;93.80;;;;;;7388811;19;20138;-75
2023/06/11 09:25:56;;;;;;;3.42;3.08;;;27.40;93.90;;;;;;7385987;19;20138;-74
2023/06/11 09:28:36;;;;;;;3.40;3.08;;;27.50;93.70;;;;;;7386524;19;20162;-74
2023/06/11 09:31:03;;;;;;;4.07;3.55;;;27.60;93.60;;;;;;7387715;19;20150;-76
2023/06/11 09:33:31;;;;;;;3.83;3.20;;;27.80;93.40;;;;;;7387774;19;20138;-74
2023/06/11 09:35:58;;;;;;;3.85;3.45;;;27.90;92.90;;;;;;7381530;19;20150;-75
2023/06/11 09:38:24;;;;;;;5.03;2.97;;;27.70;91.80;;;;;;7393264;19;20135;-77
2023/06/11 09:40:52;;;;;;;4.00;3.42;;;27.40;91.40;;;;;;7392970;19;20961;-76
2023/06/11 09:43:23;;;;;;;3.17;2.88;;;27.20;91.30;;;;;;7391673;19;20235;-74
2023/06/11 09:45:54;;;;;;;3.75;3.13;;;27.20;92.00;;;;;;7392290;19;20137;-75
2023/06/11 09:48:23;;;;;;;3.30;3.00;;;27.30;90.80;;;;;;7390949;19;20500;-75
2023/06/11 09:50:51;;;;;;;2.80;2.50;;;27.40;89.80;;;;;;7388627;19;20168;-76
2023/06/11 09:53:22;;;;;;;4.85;3.20;;;27.30;90.00;;;;;;7388384;19;20529;-75
2023/06/11 09:55:50;;;;;;;4.10;3.08;;;27.20;88.20;;;;;;7390047;19;20149;-75
2023/06/11 09:58:24;;;;;;;3.20;2.90;;;27.30;88.40;;;;;;7388616;19;20169;-75
2023/06/11 10:00:52;;;;;;;4.57;3.78;;;27.30;88.50;;;;;;7390269;19;20135;-74
2023/06/11 10:03:18;;;;;;;4.90;3.72;;;27.60;88.20;;;;;;7388959;19;20654;-77
2023/06/11 10:05:44;;;;;;;3.90;2.78;;;27.80;86.90;;;;;;7392640;19;20135;-74
2023/06/11 10:08:17;;;;;;;4.07;2.92;;;27.80;86.60;;;;;;7389139;19;20482;-74
2023/06/11 10:10:45;;;;;;;4.53;3.13;;;27.70;87.10;;;;;;7387769;19;20146;-75
2023/06/11 10:13:11;;;;;;;4.40;2.95;;;27.60;87.40;;;;;;7390127;19;20131;-73
2023/06/11 10:15:37;;;;;;;3.10;2.80;;;27.50;86.40;;;;;;7388584;19;20153;-74
2023/06/11 10:18:13;;;;;;;3.63;2.80;;;27.50;86.70;;;;;;7391800;19;20131;-72
2023/06/11 10:20:51;;;;;;;3.55;3.10;;;27.30;87.60;;;;;;7387206;19;20146;-74
2023/06/11 10:23:18;;;;;;;3.20;2.90;;;27.30;87.30;;;;;;7390248;19;20238;-75
2023/06/11 10:25:53;;;;;;;5.68;3.20;;;27.30;85.50;;;;;;7388870;19;20146;-75
2023/06/11 10:28:18;;;;;;;3.58;3.08;;;27.50;85.70;;;;;;7390131;19;20153;-73
2023/06/11 10:30:54;;;;;;;3.35;3.05;;;27.70;84.10;;;;;;7387412;19;20636;-73
2023/06/11 10:33:21;;;;;;;3.85;2.85;;;27.90;85.00;;;;;;7394910;19;20662;-88
2023/06/11 10:35:47;;;;;;;3.55;2.95;;;27.90;84.60;;;;;;7404234;19;20181;-85
2023/06/11 10:38:16;;;;;;;3.97;3.22;;;27.90;84.10;;;;;;7402309;19;20142;-84
2023/06/11 10:40:42;;;;;;;4.28;3.20;;;28.00;82.80;;;;;;7398430;19;20154;-82
2023/06/11 10:43:20;;;;;;;3.28;2.97;;;28.00;83.80;;;;;;7398529;19;20150;-84
2023/06/11 10:45:59;;;;;;;3.30;3.00;;;28.00;84.60;;;;;;7399317;19;20138;-86
2023/06/11 10:48:29;;;;;;;3.50;3.10;;;28.10;85.10;;;;;;7399409;19;20134;-86
2023/06/11 10:51:12;;;;;;;3.33;2.78;;;28.10;83.60;;;;;;7399064;19;20191;-85
2023/06/11 10:53:40;;;;;;;3.25;2.95;;;28.00;83.50;;;;;;7395159;19;20134;-83
2023/06/11 10:56:12;;;;;;;5.78;4.40;;;28.00;84.20;;;;;;7392923;19;20131;-83
2023/06/11 10:58:39;;;;;;;3.38;3.08;;;28.00;83.80;;;;;;7393206;19;20139;-85
2023/06/11 11:01:07;;;;;;;4.15;3.58;;;27.90;84.50;;;;;;7391330;19;20127;-83
2023/06/11 11:03:34;;;;;;;5.78;5.10;;;28.00;84.70;;;;;;7389960;19;20153;-85
2023/06/11 11:06:01;;;;;;;6.18;3.50;;;28.10;84.50;;;;;;7390242;19;20135;-84
2023/06/11 11:08:28;;;;;;;3.78;3.40;;;28.10;84.80;;;;;;7390481;19;20127;-85
2023/06/11 11:10:57;;;;;;;4.43;3.08;;;28.10;85.80;;;;;;7387921;19;20142;-84
2023/06/11 11:13:23;;;;;;;3.58;3.20;;;28.10;85.10;;;;;;7390956;19;20134;-86
2023/06/11 11:15:51;;;;;;;4.15;3.67;;;28.00;85.10;;;;;;7389605;19;20161;-84
2023/06/11 11:18:18;;;;;;;4.15;3.75;;;27.90;85.80;;;;;;7389313;19;20154;-84
2023/06/11 11:21:05;;;;;;;3.60;3.30;;;28.10;86.90;;;;;;7391926;19;20594;-90
2023/06/11 11:23:39;;;;;;;5.72;3.55;;;28.20;84.90;;;;;;7395359;19;20981;-85
2023/06/11 11:26:14;;;;;;;15.40;10.20;;;28.30;84.40;;;;;;7394220;19;20135;-84
2023/06/11 11:28:47;;;;;;;10.98;9.80;;;28.40;82.40;;;;;;7390404;19;20146;-85
2023/06/11 11:31:17;;;;;;;9.43;8.52;;;28.50;83.10;;;;;;7387054;19;20221;-84
2023/06/11 11:33:45;;;;;;;5.97;4.82;;;28.50;83.10;;;;;;7382988;19;20131;-83
2023/06/11 11:36:11;;;;;;;10.35;9.38;;;28.50;81.50;;;;;;7392244;19;20146;-83
2023/06/11 11:38:38;;;;;;;9.27;8.30;;;28.50;80.80;;;;;;7388702;19;20169;-83
2023/06/11 11:41:08;;;;;;;13.45;11.10;;;28.50;80.10;;;;;;7389120;19;20144;-85
2023/06/11 11:43:40;;;;;;;6.72;6.00;;;28.50;80.90;;;;;;7392678;19;20154;-87
2023/06/11 11:46:24;;;;;;;7.70;6.25;;;28.60;81.30;;;;;;7389773;19;20138;-84
2023/06/11 11:48:55;;;;;;;5.82;4.20;;;28.60;79.40;;;;;;7391679;19;20143;-86
2023/06/11 11:51:25;;;;;;;3.92;2.78;;;28.40;78.90;;;;;;7401190;19;20461;-85
2023/06/11 11:53:51;;;;;;;6.35;5.35;;;28.20;78.80;;;;;;7392337;19;20157;-85
2023/06/11 11:56:17;;;;;;;6.40;4.43;;;28.40;80.10;;;;;;7393475;19;20142;-87
2023/06/11 11:58:44;;;;;;;3.47;3.17;;;28.50;79.10;;;;;;7391892;19;20194;-85
2023/06/11 12:01:26;;;;;;;3.38;3.08;;;28.40;77.60;;;;;;7389743;19;20218;-83
2023/06/11 12:04:01;;;;;;;3.60;2.97;;;28.30;78.10;;;;;;7392193;19;20792;-84
2023/06/11 12:06:27;;;;;;;3.78;3.38;;;28.30;77.80;;;;;;7393988;19;20134;-84
2023/06/11 12:08:52;;;;;;;4.18;3.20;;;28.30;77.50;;;;;;7385535;19;20159;-85
2023/06/11 12:11:18;;;;;;;4.63;3.30;;;28.30;76.80;;;;;;7385349;19;20135;-84
2023/06/11 12:13:45;;;;;;;4.60;2.90;;;28.30;77.80;;;;;;7384922;19;20617;-83
2023/06/11 12:16:11;;;;;;;3.63;3.13;;;28.30;78.30;;;;;;7381769;19;20169;-86
2023/06/11 12:18:37;;;;;;;3.50;3.08;;;28.20;78.70;;;;;;7390094;19;20532;-84
2023/06/11 12:21:05;;;;;;;3.50;3.20;;;28.10;80.30;;;;;;7382128;19;20613;-84
2023/06/11 12:23:31;;;;;;;3.83;3.50;;;28.30;79.60;;;;;;7384671;19;20606;-91
2023/06/11 12:25:57;;;;;;;8.48;3.00;;;28.30;79.30;;;;;;7383487;19;20127;-90
2023/06/11 12:28:23;;;;;;;4.10;3.70;;;28.50;79.10;;;;;;7384478;19;20142;-85
2023/06/11 12:30:49;;;;;;;3.38;3.08;;;28.50;79.00;;;;;;7381383;19;20147;-84
2023/06/11 12:33:15;;;;;;;3.80;3.33;;;28.50;78.00;;;;;;7377243;19;20151;-84
2023/06/11 12:35:43;;;;;;;4.47;3.10;;;28.40;78.20;;;;;;7385544;19;20138;-86
2023/06/11 12:38:10;;;;;;;3.88;3.33;;;28.40;76.20;;;;;;7385370;19;20690;-86
2023/06/11 12:40:37;;;;;;;3.55;2.90;;;28.30;77.10;;;;;;7386575;19;20130;-85
2023/06/11 12:43:03;;;;;;;5.53;3.25;;;28.40;78.00;;;;;;7382748;19;20193;-85
2023/06/11 12:45:32;;;;;;;3.58;3.28;;;28.40;78.40;;;;;;7388578;19;20127;-87
2023/06/11 12:47:58;;;;;;;3.58;3.08;;;28.40;78.00;;;;;;7385815;19;20170;-86